sensor_id;sensor_type;location;lat;lon;timestamp;temperature;humidity
8780;DHT22;62328;51.19929245;4.42130175;2022-09-01T00:01:42;19.90;99.90
8780;DHT22;62328;51.19929245;4.42130175;2022-09-01T00:04:12;19.80;99.90
8780;DHT22;62328;51.19929245;4.42130175;2022-09-01T00:06:40;19.80;99.90
8780;DHT22;62328;51.19929245;4.42130175;2022-09-01T00:09:10;19.80;99.90
8780;DHT22;62328;51.19929245;4.42130175;2022-09-01T00:11:39;19.80;99.90
8780;DHT22;62328;51.19929245;4.42130175;2022-09-01T00:14:08;19.80;99.90
8780;DHT22;62328;51.19929245;4.42130175;2022-09-01T00:16:36;19.70;99.90
8780;DHT22;62328;51.19929245;4.42130175;2022-09-01T00:19:04;19.70;99.90
8780;DHT22;62328;51.19929245;4.42130175;2022-09-01T00:21:36;19.70;99.90
8780;DHT22;62328;51.19929245;4.42130175;2022-09-01T00:24:04;19.60;99.90
8780;DHT22;62328;51.19929245;4.42130175;2022-09-01T00:26:31;19.60;99.90
8780;DHT22;62328;51.19929245;4.42130175;2022-09-01T00:28:58;19.60;99.90
8780;DHT22;62328;51.19929245;4.42130175;2022-09-01T00:31:27;19.60;99.90
8780;DHT22;62328;51.19929245;4.42130175;2022-09-01T00:33:56;19.50;99.90
8780;DHT22;62328;51.19929245;4.42130175;2022-09-01T00:36:23;19.50;99.90
8780;DHT22;62328;51.19929245;4.42130175;2022-09-01T00:38:51;19.50;99.90
8780;DHT22;62328;51.19929245;4.42130175;2022-09-01T00:41:20;19.50;99.90
8780;DHT22;62328;51.19929245;4.42130175;2022-09-01T00:43:49;19.50;99.90
8780;DHT22;62328;51.19929245;4.42130175;2022-09-01T00:46:19;19.50;99.90
8780;DHT22;62328;51.19929245;4.42130175;2022-09-01T00:48:52;19.40;99.90
8780;DHT22;62328;51.19929245;4.42130175;2022-09-01T00:51:19;19.40;99.90
8780;DHT22;62328;51.19929245;4.42130175;2022-09-01T00:53:47;19.40;99.90
8780;DHT22;62328;51.19929245;4.42130175;2022-09-01T00:56:14;19.30;99.90
8780;DHT22;62328;51.19929245;4.42130175;2022-09-01T00:58:41;19.30;99.90
8780;DHT22;62328;51.19929245;4.42130175;2022-09-01T01:01:10;19.30;99.90
8780;DHT22;62328;51.19929245;4.42130175;2022-09-01T01:03:37;19.30;99.90
8780;DHT22;62328;51.19929245;4.42130175;2022-09-01T01:06:14;19.30;99.90
8780;DHT22;62328;51.19929245;4.42130175;2022-09-01T01:08:44;19.20;99.90
8780;DHT22;62328;51.19929245;4.42130175;2022-09-01T01:11:22;19.20;99.90
8780;DHT22;62328;51.19929245;4.42130175;2022-09-01T01:13:53;19.20;99.90
8780;DHT22;62328;51.19929245;4.42130175;2022-09-01T01:16:23;19.10;99.90
8780;DHT22;62328;51.19929245;4.42130175;2022-09-01T01:18:51;19.10;99.90
8780;DHT22;62328;51.19929245;4.42130175;2022-09-01T01:21:22;19.10;99.90
8780;DHT22;62328;51.19929245;4.42130175;2022-09-01T01:24:20;19.10;99.90
8780;DHT22;62328;51.19929245;4.42130175;2022-09-01T01:26:48;19.10;99.90
8780;DHT22;62328;51.19929245;4.42130175;2022-09-01T01:29:16;19.00;99.90
8780;DHT22;62328;51.19929245;4.42130175;2022-09-01T01:31:44;19.10;99.90
8780;DHT22;62328;51.19929245;4.42130175;2022-09-01T01:34:12;19.00;99.90
8780;DHT22;62328;51.19929245;4.42130175;2022-09-01T01:36:39;19.00;99.90
8780;DHT22;62328;51.19929245;4.42130175;2022-09-01T01:39:12;19.00;99.90
8780;DHT22;62328;51.19929245;4.42130175;2022-09-01T01:41:44;19.00;99.90
8780;DHT22;62328;51.19929245;4.42130175;2022-09-01T01:44:15;19.00;99.90
8780;DHT22;62328;51.19929245;4.42130175;2022-09-01T01:46:49;18.90;99.90
8780;DHT22;62328;51.19929245;4.42130175;2022-09-01T01:49:18;18.90;99.90
8780;DHT22;62328;51.19929245;4.42130175;2022-09-01T01:51:48;19.00;99.90
8780;DHT22;62328;51.19929245;4.42130175;2022-09-01T01:54:20;18.90;99.90
8780;DHT22;62328;51.19929245;4.42130175;2022-09-01T01:56:49;19.00;99.90
8780;DHT22;62328;51.19929245;4.42130175;2022-09-01T01:59:16;19.00;99.90
8780;DHT22;62328;51.19929245;4.42130175;2022-09-01T02:01:44;19.00;99.90
8780;DHT22;62328;51.19929245;4.42130175;2022-09-01T02:04:16;19.00;99.90
8780;DHT22;62328;51.19929245;4.42130175;2022-09-01T02:06:45;19.00;99.90
8780;DHT22;62328;51.19929245;4.42130175;2022-09-01T02:09:14;19.00;99.90
8780;DHT22;62328;51.19929245;4.42130175;2022-09-01T02:11:42;18.90;99.90
8780;DHT22;62328;51.19929245;4.42130175;2022-09-01T02:14:11;18.90;99.90
8780;DHT22;62328;51.19929245;4.42130175;2022-09-01T02:16:41;18.90;99.90
8780;DHT22;62328;51.19929245;4.42130175;2022-09-01T02:19:08;18.90;99.90
8780;DHT22;62328;51.19929245;4.42130175;2022-09-01T02:21:36;18.90;99.90
8780;DHT22;62328;51.19929245;4.42130175;2022-09-01T02:24:09;18.80;99.90
8780;DHT22;62328;51.19929245;4.42130175;2022-09-01T02:26:38;18.80;99.90
8780;DHT22;62328;51.19929245;4.42130175;2022-09-01T02:29:10;18.80;99.90
8780;DHT22;62328;51.19929245;4.42130175;2022-09-01T02:31:43;18.80;99.90
8780;DHT22;62328;51.19929245;4.42130175;2022-09-01T02:34:10;18.70;99.90
8780;DHT22;62328;51.19929245;4.42130175;2022-09-01T02:36:39;18.70;99.90
8780;DHT22;62328;51.19929245;4.42130175;2022-09-01T02:39:12;18.70;99.90
8780;DHT22;62328;51.19929245;4.42130175;2022-09-01T02:41:39;18.70;99.90
8780;DHT22;62328;51.19929245;4.42130175;2022-09-01T02:44:07;18.70;99.90
8780;DHT22;62328;51.19929245;4.42130175;2022-09-01T02:46:38;18.70;99.90
8780;DHT22;62328;51.19929245;4.42130175;2022-09-01T02:49:07;18.70;99.90
8780;DHT22;62328;51.19929245;4.42130175;2022-09-01T02:51:40;18.60;99.90
8780;DHT22;62328;51.19929245;4.42130175;2022-09-01T02:54:07;18.60;99.90
8780;DHT22;62328;51.19929245;4.42130175;2022-09-01T02:56:34;18.60;99.90
8780;DHT22;62328;51.19929245;4.42130175;2022-09-01T02:59:01;18.60;99.90
8780;DHT22;62328;51.19929245;4.42130175;2022-09-01T03:01:30;18.60;99.90
8780;DHT22;62328;51.19929245;4.42130175;2022-09-01T03:04:00;18.60;99.90
8780;DHT22;62328;51.19929245;4.42130175;2022-09-01T03:06:28;18.50;99.90
8780;DHT22;62328;51.19929245;4.42130175;2022-09-01T03:08:59;18.50;99.90
8780;DHT22;62328;51.19929245;4.42130175;2022-09-01T03:11:27;18.50;99.90
8780;DHT22;62328;51.19929245;4.42130175;2022-09-01T03:13:55;18.40;99.90
8780;DHT22;62328;51.19929245;4.42130175;2022-09-01T03:16:22;18.40;99.90
8780;DHT22;62328;51.19929245;4.42130175;2022-09-01T03:18:49;18.40;99.90
8780;DHT22;62328;51.19929245;4.42130175;2022-09-01T03:21:18;18.40;99.90
8780;DHT22;62328;51.19929245;4.42130175;2022-09-01T03:23:46;18.40;99.90
8780;DHT22;62328;51.19929245;4.42130175;2022-09-01T03:26:14;18.40;99.90
8780;DHT22;62328;51.19929245;4.42130175;2022-09-01T03:28:43;18.40;99.90
8780;DHT22;62328;51.19929245;4.42130175;2022-09-01T03:31:10;18.40;99.90
8780;DHT22;62328;51.19929245;4.42130175;2022-09-01T03:33:37;18.40;99.90
8780;DHT22;62328;51.19929245;4.42130175;2022-09-01T03:36:05;18.40;99.90
8780;DHT22;62328;51.19929245;4.42130175;2022-09-01T03:38:34;18.40;99.90
8780;DHT22;62328;51.19929245;4.42130175;2022-09-01T03:41:03;18.30;99.90
8780;DHT22;62328;51.19929245;4.42130175;2022-09-01T03:43:32;18.30;99.90
8780;DHT22;62328;51.19929245;4.42130175;2022-09-01T03:45:59;18.30;99.90
8780;DHT22;62328;51.19929245;4.42130175;2022-09-01T03:48:27;18.30;99.90
8780;DHT22;62328;51.19929245;4.42130175;2022-09-01T03:50:55;18.30;99.90
8780;DHT22;62328;51.19929245;4.42130175;2022-09-01T03:53:26;18.30;99.90
8780;DHT22;62328;51.19929245;4.42130175;2022-09-01T03:55:54;18.30;99.90
8780;DHT22;62328;51.19929245;4.42130175;2022-09-01T03:58:25;18.30;99.90
8780;DHT22;62328;51.19929245;4.42130175;2022-09-01T04:00:54;18.30;99.90
8780;DHT22;62328;51.19929245;4.42130175;2022-09-01T04:03:22;18.30;99.90
8780;DHT22;62328;51.19929245;4.42130175;2022-09-01T04:05:51;18.20;99.90
8780;DHT22;62328;51.19929245;4.42130175;2022-09-01T04:08:19;18.20;99.90
8780;DHT22;62328;51.19929245;4.42130175;2022-09-01T04:10:49;18.20;99.90
8780;DHT22;62328;51.19929245;4.42130175;2022-09-01T04:13:19;18.20;99.90
8780;DHT22;62328;51.19929245;4.42130175;2022-09-01T04:15:48;18.20;99.90
8780;DHT22;62328;51.19929245;4.42130175;2022-09-01T04:18:16;18.20;99.90
8780;DHT22;62328;51.19929245;4.42130175;2022-09-01T04:20:48;18.20;99.90
8780;DHT22;62328;51.19929245;4.42130175;2022-09-01T04:23:17;18.20;99.90
8780;DHT22;62328;51.19929245;4.42130175;2022-09-01T04:25:52;18.10;99.90
8780;DHT22;62328;51.19929245;4.42130175;2022-09-01T04:28:23;18.10;99.90
8780;DHT22;62328;51.19929245;4.42130175;2022-09-01T04:30:53;18.10;99.90
8780;DHT22;62328;51.19929245;4.42130175;2022-09-01T04:33:22;18.00;99.90
8780;DHT22;62328;51.19929245;4.42130175;2022-09-01T04:35:49;18.00;99.90
8780;DHT22;62328;51.19929245;4.42130175;2022-09-01T04:38:19;18.00;99.90
8780;DHT22;62328;51.19929245;4.42130175;2022-09-01T04:40:46;18.00;99.90
8780;DHT22;62328;51.19929245;4.42130175;2022-09-01T04:43:15;18.00;99.90
8780;DHT22;62328;51.19929245;4.42130175;2022-09-01T04:45:45;18.00;99.90
8780;DHT22;62328;51.19929245;4.42130175;2022-09-01T04:48:17;17.90;99.90
8780;DHT22;62328;51.19929245;4.42130175;2022-09-01T04:50:44;17.90;99.90
8780;DHT22;62328;51.19929245;4.42130175;2022-09-01T04:53:11;17.90;99.90
8780;DHT22;62328;51.19929245;4.42130175;2022-09-01T04:55:39;17.90;99.90
8780;DHT22;62328;51.19929245;4.42130175;2022-09-01T04:58:10;17.80;99.90
8780;DHT22;62328;51.19929245;4.42130175;2022-09-01T05:00:39;17.80;99.90
8780;DHT22;62328;51.19929245;4.42130175;2022-09-01T05:03:07;17.80;99.90
8780;DHT22;62328;51.19929245;4.42130175;2022-09-01T05:05:39;17.80;99.90
8780;DHT22;62328;51.19929245;4.42130175;2022-09-01T05:08:08;17.80;99.90
8780;DHT22;62328;51.19929245;4.42130175;2022-09-01T05:10:40;17.80;99.90
8780;DHT22;62328;51.19929245;4.42130175;2022-09-01T05:13:08;17.80;99.90
8780;DHT22;62328;51.19929245;4.42130175;2022-09-01T05:15:38;17.70;99.90
8780;DHT22;62328;51.19929245;4.42130175;2022-09-01T05:18:08;17.70;99.90
8780;DHT22;62328;51.19929245;4.42130175;2022-09-01T05:20:36;17.70;99.90
8780;DHT22;62328;51.19929245;4.42130175;2022-09-01T05:23:09;17.70;99.90
8780;DHT22;62328;51.19929245;4.42130175;2022-09-01T05:25:40;17.70;99.90
8780;DHT22;62328;51.19929245;4.42130175;2022-09-01T05:28:09;17.60;99.90
8780;DHT22;62328;51.19929245;4.42130175;2022-09-01T05:30:38;17.70;99.90
8780;DHT22;62328;51.19929245;4.42130175;2022-09-01T05:33:06;17.70;99.90
8780;DHT22;62328;51.19929245;4.42130175;2022-09-01T05:35:39;17.60;99.90
8780;DHT22;62328;51.19929245;4.42130175;2022-09-01T05:38:11;17.60;99.90
8780;DHT22;62328;51.19929245;4.42130175;2022-09-01T05:40:40;17.60;99.90
8780;DHT22;62328;51.19929245;4.42130175;2022-09-01T05:43:09;17.60;99.90
8780;DHT22;62328;51.19929245;4.42130175;2022-09-01T05:45:38;17.60;99.90
8780;DHT22;62328;51.19929245;4.42130175;2022-09-01T05:48:09;17.60;99.90
8780;DHT22;62328;51.19929245;4.42130175;2022-09-01T05:50:40;17.60;99.90
8780;DHT22;62328;51.19929245;4.42130175;2022-09-01T05:53:08;17.60;99.90
8780;DHT22;62328;51.19929245;4.42130175;2022-09-01T05:55:41;17.50;99.90
8780;DHT22;62328;51.19929245;4.42130175;2022-09-01T05:58:09;17.50;99.90
8780;DHT22;62328;51.19929245;4.42130175;2022-09-01T06:00:39;17.60;99.90
8780;DHT22;62328;51.19929245;4.42130175;2022-09-01T06:03:08;17.60;99.90
8780;DHT22;62328;51.19929245;4.42130175;2022-09-01T06:05:36;17.60;99.90
8780;DHT22;62328;51.19929245;4.42130175;2022-09-01T06:08:07;17.60;99.90
8780;DHT22;62328;51.19929245;4.42130175;2022-09-01T06:10:36;17.60;99.90
8780;DHT22;62328;51.19929245;4.42130175;2022-09-01T06:13:04;17.60;99.90
8780;DHT22;62328;51.19929245;4.42130175;2022-09-01T06:15:32;17.60;99.90
8780;DHT22;62328;51.19929245;4.42130175;2022-09-01T06:18:00;17.60;99.90
8780;DHT22;62328;51.19929245;4.42130175;2022-09-01T06:20:27;17.60;99.90
8780;DHT22;62328;51.19929245;4.42130175;2022-09-01T06:22:54;17.60;99.90
8780;DHT22;62328;51.19929245;4.42130175;2022-09-01T06:25:23;17.60;99.90
8780;DHT22;62328;51.19929245;4.42130175;2022-09-01T06:27:51;17.60;99.90
8780;DHT22;62328;51.19929245;4.42130175;2022-09-01T06:30:18;17.70;99.90
8780;DHT22;62328;51.19929245;4.42130175;2022-09-01T06:32:49;17.60;99.90
8780;DHT22;62328;51.19929245;4.42130175;2022-09-01T06:35:17;17.70;99.90
8780;DHT22;62328;51.19929245;4.42130175;2022-09-01T06:37:44;17.70;99.90
8780;DHT22;62328;51.19929245;4.42130175;2022-09-01T06:40:13;17.70;99.90
8780;DHT22;62328;51.19929245;4.42130175;2022-09-01T06:42:44;17.70;99.90
8780;DHT22;62328;51.19929245;4.42130175;2022-09-01T06:45:13;17.80;99.90
8780;DHT22;62328;51.19929245;4.42130175;2022-09-01T06:47:43;17.80;99.90
8780;DHT22;62328;51.19929245;4.42130175;2022-09-01T06:50:13;17.80;99.90
8780;DHT22;62328;51.19929245;4.42130175;2022-09-01T06:52:40;17.80;99.90
8780;DHT22;62328;51.19929245;4.42130175;2022-09-01T06:55:08;17.80;99.90
8780;DHT22;62328;51.19929245;4.42130175;2022-09-01T06:57:36;17.90;99.90
8780;DHT22;62328;51.19929245;4.42130175;2022-09-01T07:00:07;17.90;99.90
8780;DHT22;62328;51.19929245;4.42130175;2022-09-01T07:02:43;17.90;99.90
8780;DHT22;62328;51.19929245;4.42130175;2022-09-01T07:05:10;18.00;99.90
8780;DHT22;62328;51.19929245;4.42130175;2022-09-01T07:07:46;18.00;99.90
8780;DHT22;62328;51.19929245;4.42130175;2022-09-01T07:10:16;18.10;99.90
8780;DHT22;62328;51.19929245;4.42130175;2022-09-01T07:12:45;18.10;99.90
8780;DHT22;62328;51.19929245;4.42130175;2022-09-01T07:15:15;18.10;99.90
8780;DHT22;62328;51.19929245;4.42130175;2022-09-01T07:17:42;18.20;99.90
8780;DHT22;62328;51.19929245;4.42130175;2022-09-01T07:20:13;18.20;99.90
8780;DHT22;62328;51.19929245;4.42130175;2022-09-01T07:22:40;18.30;99.90
8780;DHT22;62328;51.19929245;4.42130175;2022-09-01T07:25:08;18.30;99.90
8780;DHT22;62328;51.19929245;4.42130175;2022-09-01T07:27:37;18.40;99.90
8780;DHT22;62328;51.19929245;4.42130175;2022-09-01T07:30:05;18.40;99.90
8780;DHT22;62328;51.19929245;4.42130175;2022-09-01T07:32:36;18.40;99.90
8780;DHT22;62328;51.19929245;4.42130175;2022-09-01T07:35:06;18.50;99.90
8780;DHT22;62328;51.19929245;4.42130175;2022-09-01T07:37:34;18.60;99.90
8780;DHT22;62328;51.19929245;4.42130175;2022-09-01T07:40:05;18.60;99.90
8780;DHT22;62328;51.19929245;4.42130175;2022-09-01T07:42:33;18.60;99.90
8780;DHT22;62328;51.19929245;4.42130175;2022-09-01T07:45:01;18.70;99.90
8780;DHT22;62328;51.19929245;4.42130175;2022-09-01T07:47:36;18.80;99.90
8780;DHT22;62328;51.19929245;4.42130175;2022-09-01T07:50:04;18.90;99.90
8780;DHT22;62328;51.19929245;4.42130175;2022-09-01T07:52:33;19.00;99.90
8780;DHT22;62328;51.19929245;4.42130175;2022-09-01T07:55:01;19.10;99.90
8780;DHT22;62328;51.19929245;4.42130175;2022-09-01T07:57:29;19.10;99.90
8780;DHT22;62328;51.19929245;4.42130175;2022-09-01T07:59:56;19.20;99.90
8780;DHT22;62328;51.19929245;4.42130175;2022-09-01T08:02:23;19.30;99.90
8780;DHT22;62328;51.19929245;4.42130175;2022-09-01T08:04:54;19.30;99.90
8780;DHT22;62328;51.19929245;4.42130175;2022-09-01T08:07:21;19.40;99.90
8780;DHT22;62328;51.19929245;4.42130175;2022-09-01T08:09:48;19.50;99.90
8780;DHT22;62328;51.19929245;4.42130175;2022-09-01T08:12:15;19.50;99.90
8780;DHT22;62328;51.19929245;4.42130175;2022-09-01T08:14:42;19.60;99.90
8780;DHT22;62328;51.19929245;4.42130175;2022-09-01T08:17:10;19.70;99.90
8780;DHT22;62328;51.19929245;4.42130175;2022-09-01T08:19:37;19.70;99.90
8780;DHT22;62328;51.19929245;4.42130175;2022-09-01T08:22:08;19.80;99.90
8780;DHT22;62328;51.19929245;4.42130175;2022-09-01T08:24:35;19.90;99.90
8780;DHT22;62328;51.19929245;4.42130175;2022-09-01T08:27:02;19.90;99.90
8780;DHT22;62328;51.19929245;4.42130175;2022-09-01T08:29:29;20.00;99.90
8780;DHT22;62328;51.19929245;4.42130175;2022-09-01T08:31:56;20.10;99.90
8780;DHT22;62328;51.19929245;4.42130175;2022-09-01T08:34:23;20.10;99.90
8780;DHT22;62328;51.19929245;4.42130175;2022-09-01T08:36:50;20.30;99.90
8780;DHT22;62328;51.19929245;4.42130175;2022-09-01T08:39:19;20.30;99.90
8780;DHT22;62328;51.19929245;4.42130175;2022-09-01T08:41:51;20.30;99.90
8780;DHT22;62328;51.19929245;4.42130175;2022-09-01T08:44:32;20.40;99.90
8780;DHT22;62328;51.19929245;4.42130175;2022-09-01T08:47:04;20.50;99.90
8780;DHT22;62328;51.19929245;4.42130175;2022-09-01T08:49:33;20.60;99.90
8780;DHT22;62328;51.19929245;4.42130175;2022-09-01T08:52:06;20.70;99.90
8780;DHT22;62328;51.19929245;4.42130175;2022-09-01T08:54:43;20.80;99.90
8780;DHT22;62328;51.19929245;4.42130175;2022-09-01T08:57:15;20.90;99.90
8780;DHT22;62328;51.19929245;4.42130175;2022-09-01T08:59:43;21.00;99.90
8780;DHT22;62328;51.19929245;4.42130175;2022-09-01T09:02:26;21.10;99.90
8780;DHT22;62328;51.19929245;4.42130175;2022-09-01T09:05:04;21.10;99.90
8780;DHT22;62328;51.19929245;4.42130175;2022-09-01T09:07:48;21.20;99.90
8780;DHT22;62328;51.19929245;4.42130175;2022-09-01T09:10:23;21.30;99.90
8780;DHT22;62328;51.19929245;4.42130175;2022-09-01T09:13:02;21.30;99.90
8780;DHT22;62328;51.19929245;4.42130175;2022-09-01T09:15:40;21.40;99.90
8780;DHT22;62328;51.19929245;4.42130175;2022-09-01T09:18:15;21.50;99.90
8780;DHT22;62328;51.19929245;4.42130175;2022-09-01T09:20:45;21.50;99.90
8780;DHT22;62328;51.19929245;4.42130175;2022-09-01T09:23:22;21.60;99.90
8780;DHT22;62328;51.19929245;4.42130175;2022-09-01T09:25:51;21.70;99.90
8780;DHT22;62328;51.19929245;4.42130175;2022-09-01T09:28:18;21.70;99.90
8780;DHT22;62328;51.19929245;4.42130175;2022-09-01T09:30:45;21.80;99.90
8780;DHT22;62328;51.19929245;4.42130175;2022-09-01T09:33:33;21.90;99.90
8780;DHT22;62328;51.19929245;4.42130175;2022-09-01T09:36:16;22.00;99.90
8780;DHT22;62328;51.19929245;4.42130175;2022-09-01T09:38:44;22.10;99.90
8780;DHT22;62328;51.19929245;4.42130175;2022-09-01T09:41:17;22.20;99.90
8780;DHT22;62328;51.19929245;4.42130175;2022-09-01T09:43:47;22.30;99.90
8780;DHT22;62328;51.19929245;4.42130175;2022-09-01T09:46:25;22.30;99.90
8780;DHT22;62328;51.19929245;4.42130175;2022-09-01T09:49:22;22.40;99.90
8780;DHT22;62328;51.19929245;4.42130175;2022-09-01T09:51:52;22.50;99.90
8780;DHT22;62328;51.19929245;4.42130175;2022-09-01T09:54:22;22.60;99.90
8780;DHT22;62328;51.19929245;4.42130175;2022-09-01T09:57:05;22.60;99.90
8780;DHT22;62328;51.19929245;4.42130175;2022-09-01T09:59:40;22.70;99.90
8780;DHT22;62328;51.19929245;4.42130175;2022-09-01T10:02:21;22.80;99.90
8780;DHT22;62328;51.19929245;4.42130175;2022-09-01T10:04:50;22.90;99.90
8780;DHT22;62328;51.19929245;4.42130175;2022-09-01T10:07:29;23.00;99.90
8780;DHT22;62328;51.19929245;4.42130175;2022-09-01T10:09:59;23.00;99.90
8780;DHT22;62328;51.19929245;4.42130175;2022-09-01T10:12:29;23.10;99.90
8780;DHT22;62328;51.19929245;4.42130175;2022-09-01T10:15:00;23.30;99.90
8780;DHT22;62328;51.19929245;4.42130175;2022-09-01T10:17:30;23.50;99.90
8780;DHT22;62328;51.19929245;4.42130175;2022-09-01T10:20:02;24.00;99.90
8780;DHT22;62328;51.19929245;4.42130175;2022-09-01T10:22:34;24.50;99.90
8780;DHT22;62328;51.19929245;4.42130175;2022-09-01T10:25:03;25.00;99.90
8780;DHT22;62328;51.19929245;4.42130175;2022-09-01T10:27:35;25.20;99.90
8780;DHT22;62328;51.19929245;4.42130175;2022-09-01T10:30:07;25.20;99.90
8780;DHT22;62328;51.19929245;4.42130175;2022-09-01T10:32:39;25.10;99.90
8780;DHT22;62328;51.19929245;4.42130175;2022-09-01T10:35:09;25.00;99.90
8780;DHT22;62328;51.19929245;4.42130175;2022-09-01T10:37:38;24.90;99.90
8780;DHT22;62328;51.19929245;4.42130175;2022-09-01T10:40:20;24.70;99.90
8780;DHT22;62328;51.19929245;4.42130175;2022-09-01T10:43:28;24.60;99.90
8780;DHT22;62328;51.19929245;4.42130175;2022-09-01T10:45:55;24.60;99.90
8780;DHT22;62328;51.19929245;4.42130175;2022-09-01T10:48:26;24.60;99.90
8780;DHT22;62328;51.19929245;4.42130175;2022-09-01T10:54:01;24.40;99.90
8780;DHT22;62328;51.19929245;4.42130175;2022-09-01T10:56:37;24.40;99.90
8780;DHT22;62328;51.19929245;4.42130175;2022-09-01T10:59:09;24.40;99.90
8780;DHT22;62328;51.19929245;4.42130175;2022-09-01T11:05:14;24.40;99.90
8780;DHT22;62328;51.19929245;4.42130175;2022-09-01T11:07:41;24.60;99.90
8780;DHT22;62328;51.19929245;4.42130175;2022-09-01T11:10:23;24.80;99.90
8780;DHT22;62328;51.19929245;4.42130175;2022-09-01T11:15:48;24.90;99.90
8780;DHT22;62328;51.19929245;4.42130175;2022-09-01T11:18:16;25.20;99.90
8780;DHT22;62328;51.19929245;4.42130175;2022-09-01T11:20:44;25.30;99.90
8780;DHT22;62328;51.19929245;4.42130175;2022-09-01T11:23:20;25.30;99.90
8780;DHT22;62328;51.19929245;4.42130175;2022-09-01T11:25:51;25.30;99.90
8780;DHT22;62328;51.19929245;4.42130175;2022-09-01T11:31:21;25.20;99.90
8780;DHT22;62328;51.19929245;4.42130175;2022-09-01T11:33:55;25.10;99.90
8780;DHT22;62328;51.19929245;4.42130175;2022-09-01T11:36:33;24.90;99.90
8780;DHT22;62328;51.19929245;4.42130175;2022-09-01T11:39:07;24.90;99.90
8780;DHT22;62328;51.19929245;4.42130175;2022-09-01T11:41:48;24.90;99.90
8780;DHT22;62328;51.19929245;4.42130175;2022-09-01T11:44:22;24.70;99.90
8780;DHT22;62328;51.19929245;4.42130175;2022-09-01T11:46:51;24.60;99.90
8780;DHT22;62328;51.19929245;4.42130175;2022-09-01T11:49:28;24.60;99.90
8780;DHT22;62328;51.19929245;4.42130175;2022-09-01T11:51:56;24.60;99.90
8780;DHT22;62328;51.19929245;4.42130175;2022-09-01T11:54:24;24.60;99.90
8780;DHT22;62328;51.19929245;4.42130175;2022-09-01T11:56:52;24.60;99.90
8780;DHT22;62328;51.19929245;4.42130175;2022-09-01T11:59:33;24.60;99.90
8780;DHT22;62328;51.19929245;4.42130175;2022-09-01T12:02:02;24.60;99.90
8780;DHT22;62328;51.19929245;4.42130175;2022-09-01T12:04:31;24.70;99.90
8780;DHT22;62328;51.19929245;4.42130175;2022-09-01T12:07:03;24.80;99.90
8780;DHT22;62328;51.19929245;4.42130175;2022-09-01T12:09:35;24.80;99.90
8780;DHT22;62328;51.19929245;4.42130175;2022-09-01T12:12:03;24.80;99.90
8780;DHT22;62328;51.19929245;4.42130175;2022-09-01T12:14:35;24.90;99.90
8780;DHT22;62328;51.19929245;4.42130175;2022-09-01T12:17:04;24.90;99.90
8780;DHT22;62328;51.19929245;4.42130175;2022-09-01T12:19:33;25.00;99.90
8780;DHT22;62328;51.19929245;4.42130175;2022-09-01T12:22:06;24.90;99.90
8780;DHT22;62328;51.19929245;4.42130175;2022-09-01T12:24:43;24.80;99.90
8780;DHT22;62328;51.19929245;4.42130175;2022-09-01T12:27:10;24.70;99.90
8780;DHT22;62328;51.19929245;4.42130175;2022-09-01T12:29:39;24.70;99.90
8780;DHT22;62328;51.19929245;4.42130175;2022-09-01T12:32:07;24.70;99.90
8780;DHT22;62328;51.19929245;4.42130175;2022-09-01T12:34:38;24.80;99.90
8780;DHT22;62328;51.19929245;4.42130175;2022-09-01T12:37:20;24.80;99.90
8780;DHT22;62328;51.19929245;4.42130175;2022-09-01T12:39:49;24.90;99.90
8780;DHT22;62328;51.19929245;4.42130175;2022-09-01T12:42:25;24.90;99.90
8780;DHT22;62328;51.19929245;4.42130175;2022-09-01T12:44:55;25.00;99.90
8780;DHT22;62328;51.19929245;4.42130175;2022-09-01T12:47:47;25.00;99.90
8780;DHT22;62328;51.19929245;4.42130175;2022-09-01T12:50:44;24.90;99.90
8780;DHT22;62328;51.19929245;4.42130175;2022-09-01T12:53:23;24.90;99.90
8780;DHT22;62328;51.19929245;4.42130175;2022-09-01T12:56:03;24.90;99.90
8780;DHT22;62328;51.19929245;4.42130175;2022-09-01T12:58:31;24.90;99.90
8780;DHT22;62328;51.19929245;4.42130175;2022-09-01T13:01:01;24.90;99.90
8780;DHT22;62328;51.19929245;4.42130175;2022-09-01T13:03:31;24.90;99.90
8780;DHT22;62328;51.19929245;4.42130175;2022-09-01T13:05:59;24.90;99.90
8780;DHT22;62328;51.19929245;4.42130175;2022-09-01T13:08:28;25.00;99.90
8780;DHT22;62328;51.19929245;4.42130175;2022-09-01T13:11:00;25.00;99.90
8780;DHT22;62328;51.19929245;4.42130175;2022-09-01T13:13:28;25.10;99.90
8780;DHT22;62328;51.19929245;4.42130175;2022-09-01T13:15:58;25.20;99.90
8780;DHT22;62328;51.19929245;4.42130175;2022-09-01T13:18:34;25.30;99.90
8780;DHT22;62328;51.19929245;4.42130175;2022-09-01T13:21:01;25.40;99.90
8780;DHT22;62328;51.19929245;4.42130175;2022-09-01T13:23:28;25.40;99.90
8780;DHT22;62328;51.19929245;4.42130175;2022-09-01T13:25:55;25.50;99.90
8780;DHT22;62328;51.19929245;4.42130175;2022-09-01T13:28:23;25.60;99.90
8780;DHT22;62328;51.19929245;4.42130175;2022-09-01T13:30:54;25.70;99.90
8780;DHT22;62328;51.19929245;4.42130175;2022-09-01T13:33:23;25.70;99.90
8780;DHT22;62328;51.19929245;4.42130175;2022-09-01T13:35:52;25.90;99.90
8780;DHT22;62328;51.19929245;4.42130175;2022-09-01T13:38:19;26.00;99.90
8780;DHT22;62328;51.19929245;4.42130175;2022-09-01T13:40:48;26.00;99.90
8780;DHT22;62328;51.19929245;4.42130175;2022-09-01T13:43:16;26.00;99.90
8780;DHT22;62328;51.19929245;4.42130175;2022-09-01T13:45:44;26.00;99.90
8780;DHT22;62328;51.19929245;4.42130175;2022-09-01T13:48:12;26.10;99.90
8780;DHT22;62328;51.19929245;4.42130175;2022-09-01T13:50:40;26.10;99.90
8780;DHT22;62328;51.19929245;4.42130175;2022-09-01T13:53:08;26.10;99.90
8780;DHT22;62328;51.19929245;4.42130175;2022-09-01T13:55:39;25.90;99.90
8780;DHT22;62328;51.19929245;4.42130175;2022-09-01T13:58:06;25.60;99.90
8780;DHT22;62328;51.19929245;4.42130175;2022-09-01T14:00:37;25.40;99.90
8780;DHT22;62328;51.19929245;4.42130175;2022-09-01T14:03:08;25.30;99.90
8780;DHT22;62328;51.19929245;4.42130175;2022-09-01T14:05:37;25.30;99.90